SAWG/RGL METAR and TAF weather

Enter ICAO airport designator
Station Type Date Time Source
SAWG METAR 2019/10/23 02:00 UTC NOAA

SAWG 230200Z 29004KT CAVOK 09/01 Q1018


Station Type Date Time Source
SAWG Decoded METAR 2019/10/23 02:00 UTC NOAA

Rio Gallegos Aerodrome, Argentina (SAWG) 51-37S 069-17W 19M
Oct 22, 2019 - 10:00 PM EDT / 2019.10.23 0200 UTC
Wind: from the WNW (290 degrees) at 5 MPH (4 KT):0
Visibility: greater than 7 mile(s):0
Temperature: 48 F (9 C)
Dew Point: 33 F (1 C)
Relative Humidity: 57%
Pressure (altimeter): 30.06 in. Hg (1018 hPa)
ob: SAWG 230200Z 29004KT CAVOK 09/01 Q1018
cycle: 2

Station Type Date Time Source
SAWG TAF 2019/10/23 00:04 UTC NOAA

TAF SAWG 222300Z 2300/2324 VRB07KT CAVOK TX17/2319Z TN05/2310Z
BECMG 2306/2308 02010KT SCT030 BKN040
BECMG 2317/2310 02025KT

Example: see airport list